createdAt,value
2018-07-14T00:01:03.932Z,101527.34
2018-07-14T00:03:33.012Z,101533.84
2018-07-14T00:06:02.143Z,101527.38
2018-07-14T00:08:31.237Z,101525.23
2018-07-14T00:11:00.352Z,101526.48
2018-07-14T00:13:29.438Z,101521.32
2018-07-14T00:15:58.525Z,101526.02
2018-07-14T00:18:27.644Z,101524.28
2018-07-14T00:20:56.748Z,101517.80
2018-07-14T00:23:25.872Z,101516.05
2018-07-14T00:26:01.435Z,101518.58
2018-07-14T00:28:32.291Z,101516.33
2018-07-14T00:31:01.373Z,101516.33
2018-07-14T00:33:31.188Z,101516.73
2018-07-14T00:36:00.269Z,101513.77
2018-07-14T00:38:29.396Z,101520.18
2018-07-14T00:40:58.477Z,101529.20
2018-07-14T00:43:27.584Z,101526.11
2018-07-14T00:45:56.666Z,101519.62
2018-07-14T00:48:25.788Z,101520.42
2018-07-14T00:50:54.871Z,101515.22
2018-07-14T00:53:24.021Z,101518.19
2018-07-14T00:55:53.132Z,101532.77
2018-07-14T00:58:22.268Z,101528.09
2018-07-14T01:00:51.372Z,101529.00
2018-07-14T01:03:20.492Z,101524.27
2018-07-14T01:05:49.588Z,101526.41
2018-07-14T01:08:18.697Z,101516.06
2018-07-14T01:10:47.777Z,101516.92
2018-07-14T01:13:16.924Z,101513.48
2018-07-14T01:15:46.024Z,101523.33
2018-07-14T01:18:15.137Z,101522.81
2018-07-14T01:20:44.212Z,101521.50
2018-07-14T01:23:13.321Z,101523.58
2018-07-14T01:25:42.764Z,101514.55
2018-07-14T01:28:11.856Z,101514.53
2018-07-14T01:30:40.953Z,101513.63
2018-07-14T01:33:10.033Z,101519.58
2018-07-14T01:35:39.128Z,101521.23
2018-07-14T01:38:08.197Z,101520.36
2018-07-14T01:40:37.350Z,101522.94
2018-07-14T01:43:06.396Z,101513.86
2018-07-14T01:45:35.496Z,101525.22
2018-07-14T01:48:04.872Z,101518.77
2018-07-14T01:50:33.979Z,101520.44
2018-07-14T01:53:03.048Z,101523.84
2018-07-14T01:55:32.141Z,101518.34
2018-07-14T01:58:01.265Z,101520.80
2018-07-14T02:00:30.376Z,101524.13
2018-07-14T02:02:59.471Z,101525.41
2018-07-14T02:05:28.569Z,101518.56
2018-07-14T02:07:57.640Z,101518.20
2018-07-14T02:10:26.764Z,101517.39
2018-07-14T02:12:55.837Z,101526.84
2018-07-14T02:15:24.936Z,101526.87
2018-07-14T02:17:54.040Z,101522.14
2018-07-14T02:20:23.154Z,101527.68
2018-07-14T02:22:52.631Z,101527.20
2018-07-14T02:25:21.994Z,101534.45
2018-07-14T02:27:51.065Z,101531.84
2018-07-14T02:30:20.161Z,101536.59
2018-07-14T02:32:49.241Z,101530.59
2018-07-14T02:35:18.380Z,101526.25
2018-07-14T02:37:47.444Z,101526.22
2018-07-14T02:40:16.664Z,101526.61
2018-07-14T02:42:45.741Z,101514.63
2018-07-14T02:45:14.825Z,101518.03
2018-07-14T02:47:43.924Z,101518.00
2018-07-14T02:50:13.000Z,101521.34
2018-07-14T02:52:42.103Z,101516.13
2018-07-14T02:55:11.180Z,101522.42
2018-07-14T02:57:40.324Z,101516.73
2018-07-14T03:00:09.416Z,101520.98
2018-07-14T03:02:38.500Z,101525.25
2018-07-14T03:05:07.596Z,101528.69
2018-07-14T03:07:36.685Z,101522.30
2018-07-14T03:10:05.795Z,101532.45
2018-07-14T03:12:34.900Z,101529.08
2018-07-14T03:15:03.983Z,101523.09
2018-07-14T03:17:33.099Z,101528.27
2018-07-14T03:20:02.174Z,101522.20
2018-07-14T03:22:31.278Z,101525.67
2018-07-14T03:25:00.584Z,101528.56
2018-07-14T03:27:29.684Z,101531.48
2018-07-14T03:29:58.764Z,101522.13
2018-07-14T03:32:27.864Z,101529.01
2018-07-14T03:34:56.971Z,101519.59
2018-07-14T03:37:26.068Z,101518.73
2018-07-14T03:39:55.180Z,101522.13
2018-07-14T03:42:24.307Z,101517.89
2018-07-14T03:44:53.416Z,101516.92
2018-07-14T03:47:22.542Z,101520.69
2018-07-14T03:49:52.632Z,101520.72
2018-07-14T03:52:21.742Z,101521.65
2018-07-14T03:54:50.824Z,101524.12
2018-07-14T03:57:19.940Z,101530.16
2018-07-14T03:59:49.024Z,101526.27
2018-07-14T04:02:18.148Z,101526.93
2018-07-14T04:04:47.232Z,101517.45
2018-07-14T04:07:16.317Z,101522.80
2018-07-14T04:09:45.425Z,101514.36
2018-07-14T04:12:14.508Z,101518.66
2018-07-14T04:14:43.961Z,101517.54
2018-07-14T04:17:13.025Z,101529.33
2018-07-14T04:19:42.149Z,101528.55
2018-07-14T04:22:11.236Z,101531.61
2018-07-14T04:24:40.348Z,101527.75
2018-07-14T04:27:09.425Z,101523.95
2018-07-14T04:29:38.534Z,101524.02
2018-07-14T04:32:07.639Z,101526.67
2018-07-14T04:34:36.755Z,101526.42
2018-07-14T04:37:05.857Z,101522.25
2018-07-14T04:39:36.013Z,101519.40
2018-07-14T04:42:05.096Z,101519.08
2018-07-14T04:44:34.232Z,101530.70
2018-07-14T04:47:03.311Z,101526.85
2018-07-14T04:49:32.436Z,101528.95
2018-07-14T04:52:01.529Z,101531.87
2018-07-14T04:54:30.652Z,101535.29
2018-07-14T04:56:59.764Z,101531.80
2018-07-14T04:59:29.005Z,101524.80
2018-07-14T05:01:58.104Z,101526.65
2018-07-14T05:04:27.203Z,101529.72
2018-07-14T05:06:56.284Z,101535.05
2018-07-14T05:09:25.380Z,101534.63
2018-07-14T05:11:54.468Z,101529.57
2018-07-14T05:14:23.555Z,101533.58
2018-07-14T05:16:52.669Z,101523.45
2018-07-14T05:19:21.764Z,101522.74
2018-07-14T05:21:50.884Z,101517.77
2018-07-14T05:24:19.969Z,101516.61
2018-07-14T05:26:49.069Z,101514.13
2018-07-14T05:29:18.156Z,101516.76
2018-07-14T05:31:47.279Z,101519.77
2018-07-14T05:34:16.399Z,101520.75
2018-07-14T05:36:45.535Z,101527.72
2018-07-14T05:39:14.639Z,101527.27
2018-07-14T05:41:43.788Z,101525.58
2018-07-14T05:44:12.897Z,101524.69
2018-07-14T05:46:42.009Z,101525.66
2018-07-14T05:49:11.099Z,101528.70
2018-07-14T05:51:40.196Z,101523.13
2018-07-14T05:54:09.283Z,101518.84
2018-07-14T05:56:38.431Z,101529.27
2018-07-14T05:59:07.540Z,101534.53
2018-07-14T06:01:36.648Z,101531.51
2018-07-14T06:04:06.047Z,101527.61
2018-07-14T06:06:35.152Z,101532.78
2018-07-14T06:09:04.846Z,101532.75
2018-07-14T06:11:33.948Z,101542.19
2018-07-14T06:14:03.056Z,101541.20
2018-07-14T06:16:32.160Z,101543.33
2018-07-14T06:19:01.272Z,101549.02
2018-07-14T06:21:30.353Z,101551.22
2018-07-14T06:23:59.472Z,101554.80
2018-07-14T06:26:28.551Z,101550.55
2018-07-14T06:28:57.660Z,101557.50
2018-07-14T06:31:26.741Z,101549.72
2018-07-14T06:33:56.183Z,101556.18
2018-07-14T06:36:25.276Z,101550.56
2018-07-14T06:38:54.377Z,101555.71
2018-07-14T06:41:23.648Z,101557.41
2018-07-14T06:43:52.749Z,101562.59
2018-07-14T06:46:21.832Z,101558.34
2018-07-14T06:48:50.951Z,101558.78
2018-07-14T06:51:20.021Z,101563.53
2018-07-14T06:53:49.188Z,101562.66
2018-07-14T06:56:19.143Z,101563.95
2018-07-14T06:58:48.448Z,101564.75
2018-07-14T07:01:17.526Z,101573.80
2018-07-14T07:03:46.616Z,101574.19
2018-07-14T07:06:15.784Z,101569.05
2018-07-14T07:08:45.670Z,101568.63
2018-07-14T07:11:14.789Z,101566.05
2018-07-14T07:13:44.002Z,101562.23
2018-07-14T07:16:13.136Z,101563.93
2018-07-14T07:18:42.209Z,101569.09
2018-07-14T07:21:11.312Z,101562.20
2018-07-14T07:23:40.416Z,101569.51
2018-07-14T07:26:09.508Z,101563.94
2018-07-14T07:28:38.671Z,101564.38
2018-07-14T07:31:07.752Z,101564.82
2018-07-14T07:33:36.829Z,101565.25
2018-07-14T07:36:05.985Z,101573.80
2018-07-14T07:38:35.060Z,101570.84
2018-07-14T07:41:04.162Z,101573.87
2018-07-14T07:43:33.256Z,101576.45
2018-07-14T07:46:02.356Z,101579.48
2018-07-14T07:48:32.161Z,101579.48
2018-07-14T07:51:01.272Z,101575.61
2018-07-14T07:53:30.348Z,101577.75
2018-07-14T07:55:59.507Z,101578.17
2018-07-14T07:58:28.652Z,101560.90
2018-07-14T08:00:57.749Z,101567.75
2018-07-14T08:03:26.843Z,101571.48
2018-07-14T08:05:55.973Z,101566.66
2018-07-14T08:08:25.074Z,101558.52
2018-07-14T08:10:54.186Z,101560.28
2018-07-14T08:13:23.283Z,101556.73
2018-07-14T08:15:52.393Z,101557.35
2018-07-14T08:18:21.539Z,101550.83
2018-07-14T08:20:50.637Z,101557.15
2018-07-14T08:23:19.879Z,101554.37
2018-07-14T08:25:49.017Z,101558.95
2018-07-14T08:28:18.119Z,101548.73
2018-07-14T08:30:47.251Z,101555.59
2018-07-14T08:33:16.380Z,101557.73
2018-07-14T08:35:45.449Z,101557.11
2018-07-14T08:38:14.569Z,101553.91
2018-07-14T08:40:43.633Z,101552.50
2018-07-14T08:43:12.756Z,101553.27
2018-07-14T08:45:41.948Z,101552.23
2018-07-14T08:48:11.084Z,101549.00
2018-07-14T08:50:40.201Z,101552.80
2018-07-14T08:53:09.288Z,101548.75
2018-07-14T08:55:38.384Z,101551.91
2018-07-14T08:58:07.529Z,101548.87
2018-07-14T09:00:36.603Z,101549.45
2018-07-14T09:03:06.048Z,101546.17
2018-07-14T09:05:35.128Z,101551.89
2018-07-14T09:08:04.926Z,101549.08
2018-07-14T09:10:34.012Z,101546.28
2018-07-14T09:13:03.204Z,101545.11
2018-07-14T09:15:33.148Z,101545.34
2018-07-14T09:18:02.258Z,101545.46
2018-07-14T09:20:31.454Z,101548.59
2018-07-14T09:23:00.548Z,101553.20
2018-07-14T09:25:29.652Z,101549.88
2018-07-14T09:27:58.760Z,101548.91
2018-07-14T09:30:27.848Z,101549.22
2018-07-14T09:32:56.997Z,101542.64
2018-07-14T09:35:26.077Z,101545.05
2018-07-14T09:37:55.192Z,101541.77
2018-07-14T09:40:24.305Z,101540.81
2018-07-14T09:42:53.417Z,101536.05
2018-07-14T09:45:22.483Z,101536.33
2018-07-14T09:47:51.601Z,101532.31
2018-07-14T09:50:20.748Z,101529.88
2018-07-14T09:52:50.757Z,101522.92
2018-07-14T09:55:19.949Z,101529.27
2018-07-14T09:57:49.021Z,101520.77
2018-07-14T10:00:23.427Z,101522.44
2018-07-14T10:02:52.509Z,101521.86
2018-07-14T10:05:21.610Z,101517.80
2018-07-14T10:07:50.673Z,101517.80
2018-07-14T10:10:19.811Z,101522.56
2018-07-14T10:12:48.929Z,101523.56
2018-07-14T10:15:18.000Z,101525.11
2018-07-14T10:17:47.171Z,101528.28
2018-07-14T10:20:16.240Z,101530.53
2018-07-14T10:22:45.420Z,101525.11
2018-07-14T10:25:14.719Z,101514.89
2018-07-14T10:27:44.311Z,101523.94
2018-07-14T10:30:13.424Z,101514.73
2018-07-14T10:32:42.519Z,101515.31
2018-07-14T10:35:11.628Z,101521.45
2018-07-14T10:37:40.712Z,101518.34
2018-07-14T10:40:09.825Z,101528.16
2018-07-14T10:42:39.008Z,101518.83
2018-07-14T10:45:08.302Z,101515.17
2018-07-14T10:47:37.386Z,101517.08
2018-07-14T10:50:07.049Z,101508.42
2018-07-14T10:52:36.389Z,101511.37
2018-07-14T10:55:06.744Z,101509.14
2018-07-14T10:57:35.949Z,101506.08
2018-07-14T11:00:05.148Z,101508.45
2018-07-14T11:02:34.284Z,101503.16
2018-07-14T11:05:03.453Z,101498.30
2018-07-14T11:07:32.624Z,101496.91
2018-07-14T11:10:01.820Z,101492.81
2018-07-14T11:12:30.921Z,101496.30
2018-07-14T11:15:00.098Z,101493.08
2018-07-14T11:17:29.221Z,101493.53
2018-07-14T11:19:58.319Z,101491.57
2018-07-14T11:22:27.456Z,101485.89
2018-07-14T11:24:56.661Z,101475.95
2018-07-14T11:27:25.788Z,101478.88
2018-07-14T11:29:54.896Z,101477.04
2018-07-14T11:32:24.065Z,101478.22
2018-07-14T11:34:54.042Z,101477.03
2018-07-14T11:37:24.577Z,101468.58
2018-07-14T11:39:53.731Z,101467.77
2018-07-14T11:42:22.960Z,101464.98
2018-07-14T11:44:52.353Z,101468.52
2018-07-14T11:47:21.975Z,101465.20
2018-07-14T11:49:51.319Z,101457.02
2018-07-14T11:52:20.699Z,101457.11
2018-07-14T11:54:50.201Z,101458.00
2018-07-14T11:57:19.500Z,101458.42
2018-07-14T11:59:48.730Z,101444.53
2018-07-14T12:02:18.080Z,101448.69
2018-07-14T12:04:47.453Z,101446.56
2018-07-14T12:07:16.702Z,101441.03
2018-07-14T12:09:46.646Z,101453.55
2018-07-14T12:12:16.060Z,101446.39
2018-07-14T12:14:45.352Z,101439.08
2018-07-14T12:17:14.734Z,101436.25
2018-07-14T12:19:44.288Z,101433.27
2018-07-14T12:22:13.533Z,101429.56
2018-07-14T12:24:42.719Z,101433.02
2018-07-14T12:27:11.833Z,101427.14
2018-07-14T12:29:41.071Z,101422.80
2018-07-14T12:32:10.194Z,101409.30
2018-07-14T12:34:39.304Z,101414.27
2018-07-14T12:37:08.391Z,101411.70
2018-07-14T12:39:37.504Z,101412.23
2018-07-14T12:42:06.606Z,101406.27
2018-07-14T12:44:35.924Z,101407.20
2018-07-14T12:47:05.085Z,101405.73
2018-07-14T12:49:34.219Z,101399.37
2018-07-14T12:52:03.316Z,101398.39
2018-07-14T12:54:32.423Z,101392.83
2018-07-14T12:57:01.824Z,101390.55
2018-07-14T12:59:31.212Z,101395.38
2018-07-14T13:02:00.314Z,101384.56
2018-07-14T13:04:29.384Z,101387.08
2018-07-14T13:06:58.576Z,101388.11
2018-07-14T13:09:27.723Z,101390.72
2018-07-14T13:11:56.840Z,101383.20
2018-07-14T13:14:25.941Z,101384.34
2018-07-14T13:16:55.088Z,101383.27
2018-07-14T13:19:24.447Z,101378.59
2018-07-14T13:21:53.728Z,101388.13
2018-07-14T13:24:22.887Z,101384.12
2018-07-14T13:26:51.971Z,101375.86
2018-07-14T13:29:21.044Z,101382.60
2018-07-14T13:31:50.158Z,101374.14
2018-07-14T13:34:19.260Z,101373.84
2018-07-14T13:36:48.548Z,101373.35
2018-07-14T13:39:17.796Z,101370.16
2018-07-14T13:41:47.971Z,101361.92
2018-07-14T13:44:17.292Z,101364.84
2018-07-14T13:46:46.441Z,101355.23
2018-07-14T13:49:15.556Z,101356.95
2018-07-14T13:51:44.676Z,101357.38
2018-07-14T13:54:13.779Z,101354.09
2018-07-14T13:56:42.988Z,101348.05
2018-07-14T13:59:12.056Z,101337.35
2018-07-14T14:01:41.166Z,101337.12
2018-07-14T14:04:10.236Z,101332.07
2018-07-14T14:06:40.120Z,101333.75
2018-07-14T14:09:09.312Z,101335.56
2018-07-14T14:11:38.426Z,101328.40
2018-07-14T14:14:07.960Z,101321.55
2018-07-14T14:16:37.143Z,101323.03
2018-07-14T14:19:06.251Z,101317.27
2018-07-14T14:21:35.328Z,101308.27
2018-07-14T14:24:04.524Z,101303.16
2018-07-14T14:26:33.617Z,101314.09
2018-07-14T14:29:02.739Z,101309.20
2018-07-14T14:31:31.880Z,101305.66
2018-07-14T14:34:00.987Z,101304.25
2018-07-14T14:36:30.060Z,101295.09
2018-07-14T14:38:59.612Z,101295.05
2018-07-14T14:41:28.689Z,101291.03
2018-07-14T14:43:57.836Z,101292.06
2018-07-14T14:46:26.948Z,101289.94
2018-07-14T14:48:56.084Z,101285.27
2018-07-14T14:51:25.185Z,101284.23
2018-07-14T14:53:54.293Z,101281.52
2018-07-14T14:56:24.460Z,101278.06
2018-07-14T14:58:53.572Z,101276.61
2018-07-14T15:01:22.740Z,101274.79
2018-07-14T15:03:51.908Z,101274.61
2018-07-14T15:06:21.014Z,101273.28
2018-07-14T15:08:50.712Z,101270.16
2018-07-14T15:11:19.858Z,101261.89
2018-07-14T15:13:49.276Z,101263.29
2018-07-14T15:16:18.397Z,101253.73
2018-07-14T15:18:47.541Z,101261.14
2018-07-14T15:21:16.672Z,101251.98
2018-07-14T15:23:45.812Z,101254.22
2018-07-14T15:26:14.947Z,101255.66
2018-07-14T15:28:44.077Z,101250.69
2018-07-14T15:31:14.013Z,101248.27
2018-07-14T15:33:43.128Z,101247.34
2018-07-14T15:36:12.245Z,101247.28
2018-07-14T15:38:41.332Z,101248.83
2018-07-14T15:41:10.449Z,101244.36
2018-07-14T15:43:39.584Z,101244.02
2018-07-14T15:46:08.708Z,101234.34
2018-07-14T15:48:37.832Z,101240.97
2018-07-14T15:51:06.988Z,101242.91
2018-07-14T15:53:36.084Z,101240.97
2018-07-14T15:56:05.768Z,101236.94
2018-07-14T15:58:34.981Z,101232.92
2018-07-14T16:01:04.126Z,101243.34
2018-07-14T16:03:33.222Z,101237.12
2018-07-14T16:06:02.333Z,101232.95
2018-07-14T16:08:31.452Z,101236.73
2018-07-14T16:11:00.590Z,101241.00
2018-07-14T16:13:29.733Z,101238.35
2018-07-14T16:15:58.885Z,101231.89
2018-07-14T16:18:28.009Z,101238.81
2018-07-14T16:20:57.125Z,101235.95
2018-07-14T16:23:26.268Z,101229.08
2018-07-14T16:25:55.389Z,101231.00
2018-07-14T16:28:24.591Z,101231.73
2018-07-14T16:30:53.636Z,101231.77
2018-07-14T16:33:22.748Z,101231.23
2018-07-14T16:35:52.054Z,101236.23
2018-07-14T16:38:21.117Z,101228.88
2018-07-14T16:40:50.525Z,101232.19
2018-07-14T16:43:19.658Z,101224.17
2018-07-14T16:45:48.763Z,101228.27
2018-07-14T16:48:17.886Z,101224.55
2018-07-14T16:50:47.033Z,101226.30
2018-07-14T16:53:16.161Z,101220.39
2018-07-14T16:55:45.310Z,101218.89
2018-07-14T16:58:14.479Z,101220.33
2018-07-14T17:00:43.749Z,101224.23
2018-07-14T17:03:12.883Z,101224.55
2018-07-14T17:05:41.976Z,101217.64
2018-07-14T17:08:11.192Z,101224.11
2018-07-14T17:10:40.361Z,101223.45
2018-07-14T17:13:09.494Z,101228.70
2018-07-14T17:15:38.599Z,101227.13
2018-07-14T17:18:08.220Z,101226.61
2018-07-14T17:20:37.334Z,101225.69
2018-07-14T17:23:06.404Z,101230.70
2018-07-14T17:25:35.517Z,101227.67
2018-07-14T17:28:04.600Z,101226.77
2018-07-14T17:30:33.709Z,101228.08
2018-07-14T17:33:02.852Z,101231.06
2018-07-14T17:35:31.961Z,101224.77
2018-07-14T17:38:01.052Z,101228.69
2018-07-14T17:40:30.155Z,101228.97
2018-07-14T17:42:59.233Z,101230.75
2018-07-14T17:45:28.353Z,101227.45
2018-07-14T17:47:57.447Z,101228.81
2018-07-14T17:50:26.552Z,101224.24
2018-07-14T17:52:55.632Z,101228.38
2018-07-14T17:55:24.760Z,101232.11
2018-07-14T17:57:53.856Z,101227.88
2018-07-14T18:00:22.961Z,101234.28
2018-07-14T18:02:52.047Z,101229.47
2018-07-14T18:05:21.216Z,101224.02
2018-07-14T18:07:50.283Z,101229.78
2018-07-14T18:10:19.392Z,101240.75
2018-07-14T18:12:48.481Z,101243.02
2018-07-14T18:15:17.591Z,101246.63
2018-07-14T18:17:46.668Z,101242.04
2018-07-14T18:20:15.753Z,101240.15
2018-07-14T18:22:44.940Z,101242.12
2018-07-14T18:25:14.051Z,101245.19
2018-07-14T18:27:43.147Z,101239.75
2018-07-14T18:30:12.246Z,101237.38
2018-07-14T18:32:41.388Z,101235.54
2018-07-14T18:35:10.489Z,101238.47
2018-07-14T18:37:39.588Z,101238.55
2018-07-14T18:40:08.669Z,101246.80
2018-07-14T18:42:37.799Z,101249.92
2018-07-14T18:45:06.902Z,101250.92
2018-07-14T18:47:36.005Z,101246.01
2018-07-14T18:50:05.124Z,101253.48
2018-07-14T18:52:34.238Z,101255.77
2018-07-14T18:55:03.341Z,101253.45
2018-07-14T18:57:32.480Z,101258.77
2018-07-14T19:00:01.549Z,101258.52
2018-07-14T19:02:30.665Z,101264.27
2018-07-14T19:04:59.753Z,101272.59
2018-07-14T19:07:28.856Z,101271.06
2018-07-14T19:09:57.952Z,101271.36
2018-07-14T19:12:27.040Z,101274.22
2018-07-14T19:14:56.133Z,101275.32
2018-07-14T19:17:25.240Z,101282.41
2018-07-14T19:19:54.403Z,101285.90
2018-07-14T19:22:23.521Z,101289.42
2018-07-14T19:24:52.649Z,101290.85
2018-07-14T19:27:21.796Z,101292.28
2018-07-14T19:29:50.976Z,101297.59
2018-07-14T19:32:20.117Z,101297.28
2018-07-14T19:34:49.358Z,101297.44
2018-07-14T19:37:18.401Z,101301.78
2018-07-14T19:39:47.524Z,101301.89
2018-07-14T19:42:16.619Z,101309.66
2018-07-14T19:44:46.769Z,101309.27
2018-07-14T19:47:15.844Z,101317.48
2018-07-14T19:49:44.941Z,101318.29
2018-07-14T19:52:14.019Z,101319.98
2018-07-14T19:54:43.159Z,101326.77
2018-07-14T19:57:12.309Z,101325.84
2018-07-14T19:59:41.402Z,101334.48
2018-07-14T20:02:10.478Z,101335.78
2018-07-14T20:04:39.600Z,101330.21
2018-07-14T20:07:08.681Z,101334.97
2018-07-14T20:09:37.786Z,101331.95
2018-07-14T20:12:07.112Z,101326.88
2018-07-14T20:14:36.264Z,101331.69
2018-07-14T20:17:05.496Z,101332.98
2018-07-14T20:19:34.595Z,101325.64
2018-07-14T20:22:03.689Z,101326.98
2018-07-14T20:24:32.916Z,101327.45
2018-07-14T20:27:02.020Z,101329.32
2018-07-14T20:29:31.134Z,101328.97
2018-07-14T20:32:00.884Z,101337.72
2018-07-14T20:34:29.999Z,101342.90
2018-07-14T20:36:59.080Z,101342.90
2018-07-14T20:39:28.195Z,101342.11
2018-07-14T20:41:57.333Z,101335.63
2018-07-14T20:44:26.452Z,101342.11
2018-07-14T20:46:55.528Z,101338.28
2018-07-14T20:49:24.629Z,101337.42
2018-07-14T20:51:53.705Z,101345.16
2018-07-14T20:54:22.845Z,101347.31
2018-07-14T20:56:53.097Z,101344.32
2018-07-14T20:59:22.247Z,101345.22
2018-07-14T21:01:51.331Z,101346.11
2018-07-14T21:04:20.433Z,101344.81
2018-07-14T21:06:49.541Z,101350.45
2018-07-14T21:09:18.616Z,101348.72
2018-07-14T21:11:47.782Z,101348.77
2018-07-14T21:14:16.860Z,101348.39
2018-07-14T21:16:45.995Z,101351.83
2018-07-14T21:19:15.076Z,101347.97
2018-07-14T21:21:44.172Z,101350.18
2018-07-14T21:24:13.263Z,101351.11
2018-07-14T21:26:42.347Z,101348.08
2018-07-14T21:29:11.424Z,101351.11
2018-07-14T21:31:40.548Z,101348.53
2018-07-14T21:34:09.628Z,101351.55
2018-07-14T21:36:38.725Z,101352.83
2018-07-14T21:39:08.235Z,101348.97
2018-07-14T21:41:37.317Z,101358.87
2018-07-14T21:44:06.436Z,101356.27
2018-07-14T21:46:35.531Z,101362.73
2018-07-14T21:49:04.610Z,101361.03
2018-07-14T21:51:33.709Z,101366.63
2018-07-14T21:54:02.780Z,101368.34
2018-07-14T21:56:31.943Z,101369.17
2018-07-14T21:59:01.037Z,101370.91
2018-07-14T22:01:31.333Z,101372.19
2018-07-14T22:04:00.608Z,101363.97
2018-07-14T22:06:29.696Z,101360.09
2018-07-14T22:08:58.772Z,101360.50
2018-07-14T22:11:28.215Z,101360.08
2018-07-14T22:13:57.818Z,101356.20
2018-07-14T22:16:26.947Z,101358.36
2018-07-14T22:18:56.044Z,101360.92
2018-07-14T22:21:25.117Z,101361.80
2018-07-14T22:23:54.228Z,101359.72
2018-07-14T22:26:23.320Z,101359.72
2018-07-14T22:28:52.426Z,101358.86
2018-07-14T22:31:21.500Z,101359.73
2018-07-14T22:33:50.617Z,101361.89
2018-07-14T22:36:20.094Z,101357.15
2018-07-14T22:38:49.196Z,101360.14
2018-07-14T22:41:18.283Z,101359.74
2018-07-14T22:43:47.392Z,101358.00
2018-07-14T22:46:16.743Z,101362.28
2018-07-14T22:48:45.863Z,101358.85
2018-07-14T22:51:14.982Z,101358.83
2018-07-14T22:53:44.074Z,101361.78
2018-07-14T22:56:13.179Z,101359.22
2018-07-14T22:58:42.312Z,101358.78
2018-07-14T23:01:12.292Z,101359.22
2018-07-14T23:03:41.408Z,101364.79
2018-07-14T23:06:10.490Z,101366.53
2018-07-14T23:08:39.596Z,101368.66
2018-07-14T23:11:09.117Z,101354.46
2018-07-14T23:13:38.206Z,101369.08
2018-07-14T23:16:07.296Z,101363.94
2018-07-14T23:18:36.404Z,101366.08
2018-07-14T23:21:05.496Z,101369.95
2018-07-14T23:23:34.600Z,101366.96
2018-07-14T23:26:03.672Z,101366.08
2018-07-14T23:28:32.740Z,101360.89
2018-07-14T23:31:01.877Z,101356.53
2018-07-14T23:33:30.916Z,101358.19
2018-07-14T23:36:00.018Z,101351.30
2018-07-14T23:38:29.119Z,101355.17
2018-07-14T23:40:58.211Z,101354.75
2018-07-14T23:43:27.334Z,101353.89
2018-07-14T23:45:56.446Z,101355.56
2018-07-14T23:48:25.520Z,101357.26
2018-07-14T23:50:54.656Z,101354.19
2018-07-14T23:53:23.720Z,101354.16
2018-07-14T23:55:52.816Z,101351.98
2018-07-14T23:58:21.908Z,101351.98
